Rasdan, Armenia

9:01 PM AMT on July 13, 2014 (GMT +0400)
SHIRAK (UDSG) Elev 5000 ft | 40.75 °N, 43.86 °E | Change Station

Current weather conditions updated 31 minutes ago

Scattered Clouds
Scattered Clouds
68 °F
Feels Like 68 °F
N
16
Wind Variable Wind from NNE
Gusts 31 mph

Tomorrow is forecast to be Much Cooler than today. Thunderstorms.

Today
High -- | Low -- °F
--% Chance of Precip.
Yesterday
High -- | Low -- °F
Precip. -- in
5:41 AM 8:31 PM
Full, 98% visible
Pressure 29.98 in
Visibility 6.2 miles
Clouds Scattered Clouds 5000 ft
Dew Point 55 °F
Humidity 64%
Rainfall 0.00 in
Snow Depth Not available.
UV 0 out of 12
Pollen Not available.
Air Quality Not available.
Flu Activity Not available.
METAR UDSG 131630Z 03007G14MPS 350V050 9999 SCT050CB 20/13 Q1015 R02/CLRD70 NOSIG

More Conditions Fewer Conditions

Pressure 29.98 in
Visibility 6.2 miles
Clouds Scattered Clouds 5000 ft
Dew Point 55 °F
Humidity 64%
Rainfall 0.00 in
Snow Depth Not available.
UV 0 out of 12
Pollen Not available.
Air Quality Not available.
Flu Activity Not available.
METAR UDSG 131630Z 03007G14MPS 350V050 9999 SCT050CB 20/13 Q1015 R02/CLRD70 NOSIG

More Conditions Fewer Conditions

10-Day Weather Forecast

Almanac

Astronomy

Jul. 13, 2014 Rise Set
Actual Time 5:41 AM AMT 8:31 PM AMT
Civil Twilight 5:08 AM AMT 9:04 PM AMT
Nautical Twilight 4:27 AM AMT 9:44 PM AMT
Astronomical Twilight 3:40 AM AMT 10:31 PM AMT
Moon 9:02 PM AMT 6:45 AM AMT
Length of Visible Light 15h 55m
Length of Day
14h 50m
Tomorrow will be 1m 17s shorter.
Full, 98% of the Moon is Illuminated
Today
Full
Jul 18
Last Quarter
Jul 26
New
Aug 3
First Quarter
Aug 10
Full

Today's Extremes

Country Highs Country Lows

Community

WunderPhotos

Upload Photos

1,733,283 photos uploaded!

Nearby

Snow Depth

Not available.

Earthquake Activity

City Distance Mag. Time & Date
No recent earthquake activity has been reported nearby.
Minimum magnitude displayed is 2.5.

Coastal Water Temperatures

Place Temperature
No Stations Reporting

Nearby Weather Stations

There are no personal weather stations in this area.